createdAt,value
2022-07-25T00:00:04.384Z,22.08
2022-07-25T00:01:07.083Z,22.05
2022-07-25T00:02:08.858Z,22.04
2022-07-25T00:03:10.948Z,22.04
2022-07-25T00:04:14.413Z,21.97
2022-07-25T00:05:16.533Z,21.90
2022-07-25T00:06:18.183Z,21.88
2022-07-25T00:07:19.871Z,21.86
2022-07-25T00:08:21.486Z,21.82
2022-07-25T00:09:23.160Z,21.79
2022-07-25T00:10:24.862Z,21.75
2022-07-25T00:11:26.595Z,21.66
2022-07-25T00:12:28.393Z,21.65
2022-07-25T00:13:29.964Z,21.62
2022-07-25T00:14:31.597Z,21.53
2022-07-25T00:15:33.306Z,21.43
2022-07-25T00:16:35.002Z,21.37
2022-07-25T00:17:37.193Z,21.42
2022-07-25T00:18:39.015Z,21.44
2022-07-25T00:19:40.934Z,21.55
2022-07-25T00:20:42.627Z,21.55
2022-07-25T00:21:44.825Z,21.55
2022-07-25T00:22:46.446Z,21.52
2022-07-25T00:23:48.123Z,21.56
2022-07-25T00:24:49.708Z,21.56
2022-07-25T00:25:51.337Z,21.56
2022-07-25T00:26:53.079Z,21.63
2022-07-25T00:27:54.704Z,21.67
2022-07-25T00:28:56.288Z,21.77
2022-07-25T00:29:57.974Z,21.86
2022-07-25T00:30:59.643Z,21.89
2022-07-25T00:32:01.293Z,21.93
2022-07-25T00:33:02.951Z,22.03
2022-07-25T00:34:04.843Z,22.15
2022-07-25T00:35:07.016Z,22.31
2022-07-25T00:36:09.218Z,22.41
2022-07-25T00:37:11.055Z,22.51
2022-07-25T00:38:12.764Z,22.65
2022-07-25T00:39:14.341Z,22.74
2022-07-25T00:40:16.154Z,22.83
2022-07-25T00:41:17.796Z,22.88
2022-07-25T00:42:19.518Z,22.93
2022-07-25T00:43:21.189Z,22.95
2022-07-25T00:44:30.244Z,23.02
2022-07-25T00:45:32.183Z,22.98
2022-07-25T00:46:33.843Z,22.93
2022-07-25T00:47:35.847Z,22.93
2022-07-25T00:48:37.550Z,22.90
2022-07-25T00:49:39.189Z,22.84
2022-07-25T00:50:41.089Z,22.80
2022-07-25T00:51:43.608Z,22.77
2022-07-25T00:52:46.009Z,22.77
2022-07-25T00:53:48.112Z,22.80
2022-07-25T00:54:49.893Z,22.87
2022-07-25T00:55:52.506Z,22.89
2022-07-25T00:56:54.208Z,22.87
2022-07-25T00:57:55.773Z,22.86
2022-07-25T00:58:57.533Z,22.87
2022-07-25T00:59:59.209Z,22.86
2022-07-25T01:01:02.454Z,22.91
2022-07-25T01:02:04.397Z,22.96
2022-07-25T01:03:06.177Z,23.03
2022-07-25T01:04:08.425Z,23.11
2022-07-25T01:05:11.370Z,23.20
2022-07-25T01:06:13.261Z,23.24
2022-07-25T01:07:15.119Z,23.27
2022-07-25T01:08:21.721Z,23.33
2022-07-25T01:09:23.598Z,23.39
2022-07-25T01:10:25.160Z,23.42
2022-07-25T01:11:26.924Z,23.47
2022-07-25T01:12:28.515Z,23.49
2022-07-25T01:13:33.522Z,23.46
2022-07-25T01:14:35.100Z,23.38
2022-07-25T01:15:39.751Z,23.36
2022-07-25T01:16:41.355Z,23.43
2022-07-25T01:17:42.940Z,23.32
2022-07-25T01:18:44.804Z,23.20
2022-07-25T01:19:47.268Z,23.14
2022-07-25T01:20:48.919Z,23.16
2022-07-25T01:21:50.505Z,23.24
2022-07-25T01:22:52.872Z,23.30
2022-07-25T01:23:54.517Z,23.34
2022-07-25T01:24:56.179Z,23.20
2022-07-25T01:25:57.754Z,23.14
2022-07-25T01:26:59.416Z,23.17
2022-07-25T01:28:01.002Z,23.07
2022-07-25T01:29:03.218Z,23.15
2022-07-25T01:30:07.538Z,23.23
2022-07-25T01:31:09.321Z,23.34
2022-07-25T01:32:12.394Z,23.34
2022-07-25T01:33:19.081Z,23.22
2022-07-25T01:34:20.711Z,23.23
2022-07-25T01:35:22.363Z,23.21
2022-07-25T01:36:24.006Z,23.16
2022-07-25T01:37:25.606Z,23.14
2022-07-25T01:38:27.436Z,23.15
2022-07-25T01:39:29.103Z,23.15
2022-07-25T01:40:30.746Z,23.17
2022-07-25T01:41:32.377Z,23.22
2022-07-25T01:42:34.693Z,23.25
2022-07-25T01:43:36.317Z,23.29
2022-07-25T01:44:37.893Z,23.25
2022-07-25T01:45:39.475Z,23.24
2022-07-25T01:46:41.227Z,23.26
2022-07-25T01:47:42.883Z,23.31
2022-07-25T01:48:44.682Z,23.35
2022-07-25T01:49:46.492Z,23.33
2022-07-25T01:50:48.093Z,23.32
2022-07-25T01:51:50.631Z,23.33
2022-07-25T01:52:52.563Z,23.33
2022-07-25T01:53:54.150Z,23.33
2022-07-25T01:54:55.924Z,23.36
2022-07-25T01:55:58.162Z,23.36
2022-07-25T01:56:59.749Z,23.34
2022-07-25T01:58:02.575Z,23.26
2022-07-25T01:59:04.572Z,23.21
2022-07-25T02:00:08.890Z,23.22
2022-07-25T02:01:10.622Z,23.21
2022-07-25T02:02:12.287Z,23.26
2022-07-25T02:03:32.081Z,23.24
2022-07-25T02:04:34.891Z,23.12
2022-07-25T02:05:36.620Z,23.07
2022-07-25T02:06:38.349Z,23.07
2022-07-25T02:07:40.013Z,23.00
2022-07-25T02:08:41.615Z,23.03
2022-07-25T02:09:43.242Z,23.04
2022-07-25T02:10:44.835Z,23.02
2022-07-25T02:11:46.523Z,22.91
2022-07-25T02:12:48.116Z,22.86
2022-07-25T02:13:49.843Z,22.75
2022-07-25T02:14:51.540Z,22.75
2022-07-25T02:15:53.530Z,22.80
2022-07-25T02:16:55.220Z,22.90
2022-07-25T02:17:56.834Z,22.97
2022-07-25T02:18:58.683Z,22.97
2022-07-25T02:20:00.292Z,22.98
2022-07-25T02:21:02.059Z,22.95
2022-07-25T02:22:04.049Z,22.96
2022-07-25T02:23:06.147Z,22.93
2022-07-25T02:24:08.478Z,22.92
2022-07-25T02:25:10.825Z,22.89
2022-07-25T02:26:13.505Z,22.87
2022-07-25T02:27:15.107Z,22.82
2022-07-25T02:28:16.733Z,22.76
2022-07-25T02:29:18.535Z,22.70
2022-07-25T02:30:23.816Z,22.67
2022-07-25T02:31:25.463Z,22.69
2022-07-25T02:32:27.215Z,22.71
2022-07-25T02:33:28.911Z,22.72
2022-07-25T02:34:30.589Z,22.65
2022-07-25T02:35:32.289Z,22.57
2022-07-25T02:36:34.093Z,22.44
2022-07-25T02:37:35.846Z,22.32
2022-07-25T02:38:38.082Z,22.29
2022-07-25T02:39:40.025Z,22.28
2022-07-25T02:40:41.709Z,22.23
2022-07-25T02:41:44.235Z,22.37
2022-07-25T02:42:45.803Z,22.50
2022-07-25T02:43:47.369Z,22.61
2022-07-25T02:44:49.017Z,22.68
2022-07-25T02:45:50.668Z,22.76
2022-07-25T02:46:52.299Z,22.81
2022-07-25T02:47:53.958Z,22.87
2022-07-25T02:48:55.716Z,22.93
2022-07-25T02:49:57.379Z,22.99
2022-07-25T02:50:58.944Z,23.04
2022-07-25T02:52:00.494Z,23.09
2022-07-25T02:53:02.659Z,23.14
2022-07-25T02:54:04.257Z,23.17
2022-07-25T02:55:09.712Z,23.03
2022-07-25T02:56:11.656Z,22.76
2022-07-25T02:57:15.976Z,22.41
2022-07-25T02:58:17.626Z,22.26
2022-07-25T02:59:19.233Z,22.10
2022-07-25T03:00:20.865Z,21.91
2022-07-25T03:01:22.480Z,21.80
2022-07-25T03:02:24.363Z,21.70
2022-07-25T03:03:25.999Z,21.60
2022-07-25T03:04:28.528Z,21.50
2022-07-25T03:05:30.145Z,21.36
2022-07-25T03:06:31.736Z,21.27
2022-07-25T03:07:33.345Z,21.20
2022-07-25T03:08:35.052Z,21.20
2022-07-25T03:09:36.703Z,21.17
2022-07-25T03:10:38.330Z,21.15
2022-07-25T03:11:40.006Z,21.15
2022-07-25T03:12:42.939Z,21.12
2022-07-25T03:13:44.551Z,21.08
2022-07-25T03:14:46.204Z,20.96
2022-07-25T03:15:48.832Z,20.85
2022-07-25T03:16:50.569Z,20.78
2022-07-25T03:17:52.202Z,20.72
2022-07-25T03:18:53.771Z,20.74
2022-07-25T03:19:56.140Z,20.76
2022-07-25T03:20:57.695Z,20.77
2022-07-25T03:21:59.286Z,20.77
2022-07-25T03:23:00.875Z,20.75
2022-07-25T03:24:02.551Z,20.73
2022-07-25T03:25:04.712Z,20.69
2022-07-25T03:26:06.959Z,20.61
2022-07-25T03:27:08.570Z,20.59
2022-07-25T03:28:10.170Z,20.57
2022-07-25T03:29:12.350Z,20.54
2022-07-25T03:30:14.058Z,20.56
2022-07-25T03:31:15.705Z,20.59
2022-07-25T03:32:17.452Z,20.61
2022-07-25T03:33:19.041Z,20.67
2022-07-25T03:34:20.651Z,20.67
2022-07-25T03:35:22.322Z,20.66
2022-07-25T03:36:23.954Z,20.76
2022-07-25T03:37:25.580Z,20.83
2022-07-25T03:38:27.206Z,20.85
2022-07-25T03:39:30.213Z,20.94
2022-07-25T03:40:31.808Z,20.94
2022-07-25T03:41:33.484Z,21.00
2022-07-25T03:42:35.610Z,21.08
2022-07-25T03:43:37.626Z,21.06
2022-07-25T03:44:39.294Z,21.06
2022-07-25T03:45:41.012Z,21.10
2022-07-25T03:46:42.686Z,21.13
2022-07-25T03:47:44.272Z,21.10
2022-07-25T03:48:45.939Z,21.10
2022-07-25T03:49:47.596Z,21.10
2022-07-25T03:50:49.276Z,21.18
2022-07-25T03:51:50.889Z,21.22
2022-07-25T03:52:52.479Z,21.24
2022-07-25T03:54:03.701Z,21.24
2022-07-25T03:55:11.223Z,21.19
2022-07-25T03:56:12.814Z,21.07
2022-07-25T03:57:14.433Z,21.00
2022-07-25T03:58:16.059Z,20.99
2022-07-25T03:59:20.146Z,21.03
2022-07-25T04:00:22.009Z,21.07
2022-07-25T04:01:23.795Z,21.14
2022-07-25T04:02:28.196Z,21.17
2022-07-25T04:03:29.967Z,21.24
2022-07-25T04:04:31.871Z,21.28
2022-07-25T04:05:33.518Z,21.33
2022-07-25T04:06:35.115Z,21.37
2022-07-25T04:07:37.217Z,21.46
2022-07-25T04:08:39.972Z,21.59
2022-07-25T04:09:42.378Z,21.70
2022-07-25T04:10:43.932Z,21.83
2022-07-25T04:11:46.371Z,21.95
2022-07-25T04:12:48.026Z,22.06
2022-07-25T04:13:50.287Z,22.18
2022-07-25T04:14:51.887Z,22.17
2022-07-25T04:15:53.530Z,22.22
2022-07-25T04:16:55.204Z,22.29
2022-07-25T04:17:56.856Z,22.33
2022-07-25T04:18:58.914Z,22.44
2022-07-25T04:20:02.803Z,22.45
2022-07-25T04:21:08.049Z,22.52
2022-07-25T04:22:10.937Z,22.57
2022-07-25T04:23:12.577Z,22.58
2022-07-25T04:24:14.250Z,22.65
2022-07-25T04:25:16.080Z,22.71
2022-07-25T04:26:18.274Z,22.78
2022-07-25T04:27:19.893Z,22.85
2022-07-25T04:28:21.528Z,22.92
2022-07-25T04:29:23.128Z,22.98
2022-07-25T04:30:25.012Z,23.02
2022-07-25T04:31:26.807Z,23.07
2022-07-25T04:32:28.475Z,23.00
2022-07-25T04:33:30.105Z,23.03
2022-07-25T04:34:31.685Z,23.12
2022-07-25T04:35:33.289Z,23.22
2022-07-25T04:36:34.961Z,23.25
2022-07-25T04:37:37.529Z,23.26
2022-07-25T04:38:39.328Z,23.29
2022-07-25T04:39:40.904Z,23.14
2022-07-25T04:40:43.095Z,23.09
2022-07-25T04:41:44.757Z,23.18
2022-07-25T04:42:46.485Z,23.28
2022-07-25T04:43:48.914Z,23.32
2022-07-25T04:44:50.717Z,23.26
2022-07-25T04:45:52.485Z,23.25
2022-07-25T04:46:54.136Z,23.21
2022-07-25T04:47:55.940Z,23.20
2022-07-25T04:48:57.543Z,23.04
2022-07-25T04:49:59.156Z,22.84
2022-07-25T04:51:01.249Z,22.74
2022-07-25T04:52:02.918Z,22.76
2022-07-25T04:53:05.279Z,22.91
2022-07-25T04:54:07.213Z,23.05
2022-07-25T04:55:09.295Z,23.10
2022-07-25T04:56:11.115Z,23.16
2022-07-25T04:57:12.722Z,23.30
2022-07-25T04:58:14.352Z,23.42
2022-07-25T04:59:15.920Z,23.49
2022-07-25T05:00:17.998Z,23.48
2022-07-25T05:01:19.794Z,23.45
2022-07-25T05:02:21.533Z,23.44
2022-07-25T05:03:23.159Z,23.46
2022-07-25T05:04:24.762Z,23.58
2022-07-25T05:05:26.739Z,23.70
2022-07-25T05:06:28.479Z,23.87
2022-07-25T05:07:30.247Z,24.01
2022-07-25T05:08:31.833Z,23.99
2022-07-25T05:09:33.592Z,24.02
2022-07-25T05:10:35.327Z,24.10
2022-07-25T05:11:36.966Z,24.25
2022-07-25T05:12:38.883Z,24.27
2022-07-25T05:13:40.508Z,24.45
2022-07-25T05:14:42.121Z,24.66
2022-07-25T05:15:43.717Z,24.91
2022-07-25T05:16:45.551Z,24.99
2022-07-25T05:17:47.240Z,25.13
2022-07-25T05:18:49.866Z,25.10
2022-07-25T05:19:51.567Z,25.10
2022-07-25T05:20:53.162Z,25.26
2022-07-25T05:21:54.707Z,25.38
2022-07-25T05:22:56.284Z,25.53
2022-07-25T05:23:57.862Z,25.72
2022-07-25T05:24:59.769Z,25.86
2022-07-25T05:26:01.374Z,25.98
2022-07-25T05:27:04.270Z,26.12
2022-07-25T05:28:05.937Z,26.28
2022-07-25T05:29:07.516Z,26.34
2022-07-25T05:30:10.967Z,26.42
2022-07-25T05:31:12.616Z,26.51
2022-07-25T05:32:14.267Z,26.62
2022-07-25T05:33:15.918Z,26.70
2022-07-25T05:34:17.552Z,26.73
2022-07-25T05:35:19.145Z,26.77
2022-07-25T05:36:20.915Z,26.87
2022-07-25T05:37:22.644Z,26.93
2022-07-25T05:38:24.864Z,26.93
2022-07-25T05:39:26.461Z,27.03
2022-07-25T05:40:28.353Z,27.07
2022-07-25T05:41:29.929Z,27.09
2022-07-25T05:42:31.610Z,27.07
2022-07-25T05:43:33.174Z,27.10
2022-07-25T05:44:34.781Z,27.15
2022-07-25T05:45:36.551Z,27.16
2022-07-25T05:46:38.203Z,27.27
2022-07-25T05:47:39.918Z,27.29
2022-07-25T05:48:42.388Z,27.32
2022-07-25T05:49:44.866Z,27.43
2022-07-25T05:50:46.479Z,27.55
2022-07-25T05:51:48.057Z,27.63
2022-07-25T05:52:49.741Z,27.75
2022-07-25T05:53:51.361Z,27.83
2022-07-25T05:54:53.011Z,27.95
2022-07-25T05:55:54.768Z,27.93
2022-07-25T05:56:56.394Z,27.98
2022-07-25T05:57:59.094Z,28.07
2022-07-25T05:59:01.106Z,28.14
2022-07-25T06:00:05.474Z,28.23
2022-07-25T06:01:08.515Z,28.18
2022-07-25T06:02:10.315Z,28.25
2022-07-25T06:03:12.252Z,28.25
2022-07-25T06:04:13.961Z,28.08
2022-07-25T06:05:15.952Z,28.09
2022-07-25T06:06:17.825Z,28.09
2022-07-25T06:07:19.452Z,27.96
2022-07-25T06:08:24.448Z,27.93
2022-07-25T06:09:26.753Z,27.96
2022-07-25T06:10:28.386Z,28.02
2022-07-25T06:11:31.545Z,28.03
2022-07-25T06:12:33.831Z,28.06
2022-07-25T06:13:38.448Z,28.18
2022-07-25T06:14:40.065Z,28.30
2022-07-25T06:15:41.801Z,28.33
2022-07-25T06:16:43.606Z,28.18
2022-07-25T06:17:45.386Z,28.01
2022-07-25T06:18:47.022Z,27.95
2022-07-25T06:19:48.777Z,28.04
2022-07-25T06:20:50.467Z,27.95
2022-07-25T06:21:52.145Z,28.03
2022-07-25T06:22:53.835Z,28.13
2022-07-25T06:23:55.404Z,27.89
2022-07-25T06:24:57.255Z,27.60
2022-07-25T06:25:58.878Z,27.73
2022-07-25T06:27:00.554Z,27.94
2022-07-25T06:28:02.588Z,28.11
2022-07-25T06:29:04.202Z,27.97
2022-07-25T06:30:18.588Z,27.97
2022-07-25T06:31:21.514Z,27.76
2022-07-25T06:32:23.127Z,27.88
2022-07-25T06:33:24.756Z,28.11
2022-07-25T06:34:28.799Z,28.42
2022-07-25T06:35:30.585Z,28.65
2022-07-25T06:36:33.110Z,28.79
2022-07-25T06:37:37.950Z,28.92
2022-07-25T06:38:39.906Z,29.13
2022-07-25T06:39:45.688Z,29.30
2022-07-25T06:40:47.794Z,29.28
2022-07-25T06:41:49.502Z,29.30
2022-07-25T06:42:51.081Z,29.18
2022-07-25T06:43:52.780Z,29.13
2022-07-25T06:44:54.348Z,29.20
2022-07-25T06:45:56.022Z,29.19
2022-07-25T06:46:57.629Z,29.34
2022-07-25T06:47:59.337Z,29.51
2022-07-25T06:49:01.003Z,29.62
2022-07-25T06:50:03.066Z,29.66
2022-07-25T06:51:06.234Z,29.74
2022-07-25T06:52:08.519Z,29.92
2022-07-25T06:53:10.358Z,30.08
2022-07-25T06:54:13.796Z,30.15
2022-07-25T06:55:16.136Z,30.19
2022-07-25T06:56:17.945Z,30.13
2022-07-25T06:57:19.849Z,30.17
2022-07-25T06:58:22.833Z,30.20
2022-07-25T06:59:27.442Z,30.28
2022-07-25T07:00:29.140Z,30.47
2022-07-25T07:01:30.834Z,30.66
2022-07-25T07:02:32.515Z,30.65
2022-07-25T07:03:38.326Z,30.68
2022-07-25T07:04:40.082Z,30.73
2022-07-25T07:05:42.007Z,30.74
2022-07-25T07:06:44.027Z,30.77
2022-07-25T07:07:47.815Z,30.81
2022-07-25T07:08:49.784Z,30.92
2022-07-25T07:09:51.378Z,31.00
2022-07-25T07:10:52.966Z,31.12
2022-07-25T07:11:54.572Z,31.05
2022-07-25T07:13:04.940Z,30.99
2022-07-25T07:14:09.652Z,31.00
2022-07-25T07:15:12.391Z,30.85
2022-07-25T07:16:14.071Z,30.71
2022-07-25T07:17:15.683Z,30.68
2022-07-25T07:18:19.005Z,30.78
2022-07-25T07:19:20.707Z,30.91
2022-07-25T07:20:22.337Z,30.95
2022-07-25T07:21:24.623Z,30.91
2022-07-25T07:22:27.549Z,30.83
2022-07-25T07:23:29.463Z,30.91
2022-07-25T07:24:31.424Z,30.97
2022-07-25T07:25:33.710Z,31.09
2022-07-25T07:26:35.444Z,31.28
2022-07-25T07:27:37.058Z,31.44
2022-07-25T07:28:38.841Z,31.49
2022-07-25T07:29:40.540Z,31.53
2022-07-25T07:32:06.779Z,31.47
2022-07-25T07:33:08.655Z,31.48
2022-07-25T07:34:11.319Z,31.51
2022-07-25T07:35:16.685Z,31.62
2022-07-25T07:36:18.444Z,31.69
2022-07-25T07:37:20.011Z,31.60
2022-07-25T07:38:21.769Z,31.56
2022-07-25T07:39:23.359Z,31.55
2022-07-25T07:40:26.825Z,31.54
2022-07-25T07:41:28.538Z,31.62
2022-07-25T07:42:41.210Z,31.60
2022-07-25T07:43:42.830Z,31.57
2022-07-25T07:44:44.530Z,31.59
2022-07-25T07:45:46.592Z,31.59
2022-07-25T07:46:49.041Z,31.47
2022-07-25T07:47:52.469Z,30.93
2022-07-25T07:48:54.148Z,30.66
2022-07-25T07:49:56.048Z,30.78
2022-07-25T07:50:58.745Z,30.78
2022-07-25T07:52:00.551Z,30.78
2022-07-25T07:53:02.542Z,30.99
2022-07-25T07:54:24.042Z,30.95
2022-07-25T07:55:44.610Z,30.96
2022-07-25T07:56:46.286Z,31.05
2022-07-25T07:57:47.928Z,31.03
2022-07-25T07:58:49.556Z,31.14
2022-07-25T07:59:51.199Z,31.14
2022-07-25T08:00:54.388Z,31.22
2022-07-25T08:01:56.048Z,31.29
2022-07-25T08:02:59.075Z,31.34
2022-07-25T08:04:00.774Z,31.42
2022-07-25T08:05:02.363Z,31.42
2022-07-25T08:06:04.700Z,31.30
2022-07-25T08:07:06.273Z,31.26
2022-07-25T08:08:10.092Z,31.24
2022-07-25T08:09:11.649Z,31.23
2022-07-25T08:10:13.356Z,31.23
2022-07-25T08:11:15.025Z,31.39
2022-07-25T08:12:16.641Z,31.53
2022-07-25T08:13:30.365Z,31.51
2022-07-25T08:14:32.326Z,31.57
2022-07-25T08:15:33.972Z,31.54
2022-07-25T08:16:35.840Z,31.62
2022-07-25T08:17:37.579Z,31.77
2022-07-25T08:18:39.899Z,31.90
2022-07-25T08:19:41.694Z,31.73
2022-07-25T08:20:43.381Z,31.33
2022-07-25T08:21:46.843Z,30.92
2022-07-25T08:22:54.447Z,30.79
2022-07-25T08:23:58.053Z,30.65
2022-07-25T08:24:59.736Z,30.58
2022-07-25T08:26:02.463Z,30.59
2022-07-25T08:27:04.088Z,30.66
2022-07-25T08:28:06.592Z,30.70
2022-07-25T08:29:19.426Z,30.65
2022-07-25T08:30:22.358Z,30.68
2022-07-25T08:31:24.285Z,30.56
2022-07-25T08:32:25.968Z,30.51
2022-07-25T08:33:28.398Z,30.32
2022-07-25T08:34:29.991Z,30.20
2022-07-25T08:35:34.518Z,30.28
2022-07-25T08:36:36.152Z,30.21
2022-07-25T08:37:37.757Z,30.41
2022-07-25T08:38:39.366Z,30.69
2022-07-25T08:39:41.697Z,30.93
2022-07-25T08:40:43.331Z,31.10
2022-07-25T08:41:45.658Z,31.29
2022-07-25T08:42:48.031Z,31.44
2022-07-25T08:43:50.141Z,31.46
2022-07-25T08:44:59.601Z,31.62
2022-07-25T08:46:02.792Z,31.51
2022-07-25T08:47:04.862Z,31.59
2022-07-25T08:48:11.310Z,31.83
2022-07-25T08:49:13.161Z,32.05
2022-07-25T08:50:18.231Z,32.23
2022-07-25T08:51:20.355Z,32.39
2022-07-25T08:52:23.388Z,32.48
2022-07-25T08:53:34.592Z,32.54
2022-07-25T08:54:36.948Z,32.67
2022-07-25T08:55:39.462Z,32.67
2022-07-25T08:56:41.100Z,32.78
2022-07-25T08:57:46.240Z,32.87
2022-07-25T08:58:48.191Z,32.98
2022-07-25T08:59:49.884Z,32.98
2022-07-25T09:00:51.674Z,33.01
2022-07-25T09:01:53.298Z,32.98
2022-07-25T09:02:58.414Z,32.96
2022-07-25T09:04:01.025Z,33.00
2022-07-25T09:05:02.843Z,33.01
2022-07-25T09:06:19.317Z,33.00
2022-07-25T09:07:41.246Z,32.94
2022-07-25T09:08:54.508Z,32.64
2022-07-25T09:09:56.131Z,32.53
2022-07-25T09:10:57.714Z,32.61
2022-07-25T09:11:59.586Z,32.69
2022-07-25T09:13:08.044Z,32.53
2022-07-25T09:14:15.364Z,32.38
2022-07-25T09:15:31.884Z,32.11
2022-07-25T09:16:36.245Z,31.95
2022-07-25T09:17:50.735Z,31.81
2022-07-25T09:18:52.405Z,31.73
2022-07-25T09:19:55.875Z,31.75
2022-07-25T09:21:01.687Z,31.70
2022-07-25T09:22:06.426Z,31.69
2022-07-25T09:23:14.595Z,31.62
2022-07-25T09:24:18.527Z,31.61
2022-07-25T09:25:25.477Z,31.66
2022-07-25T09:26:27.141Z,31.56
2022-07-25T09:27:34.541Z,31.45
2022-07-25T09:28:51.261Z,31.40
2022-07-25T09:29:53.096Z,31.46
2022-07-25T09:30:59.573Z,31.49
2022-07-25T09:32:13.336Z,31.47
2022-07-25T09:33:14.918Z,31.44
2022-07-25T09:34:37.846Z,31.56
2022-07-25T09:35:41.258Z,31.62
2022-07-25T09:36:54.272Z,31.56
2022-07-25T09:38:07.542Z,31.61
2022-07-25T09:39:09.196Z,31.61
2022-07-25T09:40:14.693Z,31.63
2022-07-25T09:41:16.288Z,31.60
2022-07-25T09:42:29.033Z,31.53
2022-07-25T09:43:41.838Z,31.58
2022-07-25T09:44:44.091Z,31.71
2022-07-25T09:45:52.395Z,31.69
2022-07-25T09:46:54.057Z,31.68
2022-07-25T09:47:58.730Z,31.77
2022-07-25T09:49:01.118Z,31.86
2022-07-25T09:50:03.193Z,31.90
2022-07-25T09:51:05.713Z,31.97
2022-07-25T09:52:07.313Z,32.07
2022-07-25T09:53:09.106Z,32.18
2022-07-25T09:54:11.055Z,32.31
2022-07-25T09:55:14.273Z,32.34
2022-07-25T09:56:15.910Z,32.29
2022-07-25T09:57:17.707Z,32.26
2022-07-25T09:58:19.570Z,32.24
2022-07-25T09:59:21.372Z,32.23
2022-07-25T10:00:25.913Z,32.29
2022-07-25T10:01:36.832Z,32.26
2022-07-25T10:03:00.275Z,32.32
2022-07-25T10:04:30.133Z,32.37
2022-07-25T10:05:38.547Z,32.40
2022-07-25T10:06:49.529Z,32.30
2022-07-25T10:07:54.486Z,32.27
2022-07-25T10:08:57.499Z,32.20
2022-07-25T10:10:00.091Z,32.19
2022-07-25T10:11:01.888Z,32.16
2022-07-25T10:12:04.947Z,32.26
2022-07-25T10:13:16.991Z,32.27
2022-07-25T10:14:19.363Z,32.34
2022-07-25T10:15:21.027Z,32.40
2022-07-25T10:16:24.970Z,32.44
2022-07-25T10:17:26.738Z,32.40
2022-07-25T10:18:30.239Z,32.28
2022-07-25T10:20:01.411Z,32.21
2022-07-25T10:21:25.115Z,32.28
2022-07-25T10:22:58.625Z,32.27
2022-07-25T10:24:08.239Z,32.21
2022-07-25T10:25:20.623Z,32.13
2022-07-25T10:26:22.231Z,32.12
2022-07-25T10:27:24.887Z,32.14
2022-07-25T10:28:37.273Z,32.13
2022-07-25T10:29:42.442Z,32.21
2022-07-25T10:30:44.423Z,32.30
2022-07-25T10:31:51.082Z,32.40
2022-07-25T10:33:01.246Z,32.46
2022-07-25T10:34:06.250Z,32.49
2022-07-25T10:35:17.221Z,32.49
2022-07-25T10:36:20.745Z,32.51
2022-07-25T10:37:27.839Z,32.51
2022-07-25T10:38:29.475Z,32.60
2022-07-25T10:39:41.759Z,32.68
2022-07-25T10:40:46.545Z,32.65
2022-07-25T10:41:55.837Z,32.63
2022-07-25T10:43:07.369Z,32.58
2022-07-25T10:44:14.342Z,32.65
2022-07-25T10:45:18.041Z,32.59
2022-07-25T10:46:23.195Z,32.61
2022-07-25T10:47:28.066Z,32.54
2022-07-25T10:48:33.263Z,32.53
2022-07-25T10:50:00.151Z,32.58
2022-07-25T10:51:08.264Z,32.70
2022-07-25T10:52:17.928Z,32.67
2022-07-25T10:53:36.686Z,32.69
2022-07-25T10:54:39.210Z,32.74
2022-07-25T10:55:40.834Z,32.73
2022-07-25T10:56:57.440Z,32.72
2022-07-25T10:58:20.250Z,32.73
2022-07-25T10:59:37.419Z,32.74
2022-07-25T11:00:43.998Z,32.89
2022-07-25T11:01:51.079Z,32.86
2022-07-25T11:02:58.507Z,32.81
2022-07-25T11:04:05.392Z,32.80
2022-07-25T11:05:07.400Z,32.78
2022-07-25T11:06:09.083Z,32.81
2022-07-25T11:07:15.968Z,32.87
2022-07-25T11:08:22.084Z,32.92
2022-07-25T11:09:28.815Z,32.89
2022-07-25T11:10:30.666Z,32.94
2022-07-25T11:11:37.952Z,32.98
2022-07-25T11:12:39.779Z,32.94
2022-07-25T11:13:42.776Z,32.92
2022-07-25T11:14:45.415Z,32.90
2022-07-25T11:15:47.741Z,32.93
2022-07-25T11:16:52.631Z,33.01
2022-07-25T11:17:55.603Z,33.07
2022-07-25T11:18:57.396Z,33.12
2022-07-25T11:20:00.322Z,33.12
2022-07-25T11:21:06.447Z,33.15
2022-07-25T11:22:08.758Z,33.20
2022-07-25T11:23:10.422Z,33.13
2022-07-25T11:24:12.199Z,32.98
2022-07-25T11:25:14.505Z,32.92
2022-07-25T11:26:16.237Z,32.85
2022-07-25T11:27:25.959Z,32.89
2022-07-25T11:28:37.904Z,32.99
2022-07-25T11:29:40.606Z,33.00
2022-07-25T11:30:42.494Z,33.05
2022-07-25T11:31:44.176Z,33.12
2022-07-25T11:32:49.723Z,33.10
2022-07-25T11:33:52.879Z,33.08
2022-07-25T11:34:55.056Z,33.10
2022-07-25T11:35:58.165Z,33.07
2022-07-25T11:37:07.076Z,33.12
2022-07-25T11:38:14.276Z,33.12
2022-07-25T11:39:18.973Z,33.15
2022-07-25T11:40:22.644Z,33.10
2022-07-25T11:41:30.978Z,33.06
2022-07-25T11:42:47.894Z,33.00
2022-07-25T11:43:49.772Z,32.97
2022-07-25T11:44:53.033Z,32.95
2022-07-25T11:46:07.723Z,32.98
2022-07-25T11:47:22.425Z,32.94
2022-07-25T11:48:31.689Z,33.03
2022-07-25T11:49:44.854Z,33.04
2022-07-25T11:50:46.432Z,33.06
2022-07-25T11:51:48.067Z,33.15
2022-07-25T11:53:02.226Z,33.22
2022-07-25T11:54:10.661Z,33.26
2022-07-25T11:55:17.974Z,33.29
2022-07-25T11:57:46.388Z,33.22
2022-07-25T11:58:59.003Z,33.23
2022-07-25T12:00:02.807Z,33.28
2022-07-25T12:01:15.098Z,33.26
2022-07-25T12:02:31.274Z,33.21
2022-07-25T12:03:38.491Z,33.16
2022-07-25T12:04:40.346Z,33.21
2022-07-25T12:05:42.768Z,33.26
2022-07-25T12:06:50.050Z,33.29
2022-07-25T12:07:53.325Z,33.44
2022-07-25T12:08:54.942Z,33.49
2022-07-25T12:09:57.620Z,33.48
2022-07-25T12:10:59.344Z,33.46
2022-07-25T12:12:04.612Z,33.31
2022-07-25T12:13:08.764Z,33.31
2022-07-25T12:14:11.294Z,33.32
2022-07-25T12:15:16.357Z,33.41
2022-07-25T12:16:18.039Z,33.41
2022-07-25T12:17:19.643Z,33.41
2022-07-25T12:18:21.260Z,33.37
2022-07-25T12:19:22.948Z,33.28
2022-07-25T12:20:31.040Z,33.22
2022-07-25T12:21:32.838Z,33.31
2022-07-25T12:22:34.425Z,33.44
2022-07-25T12:23:36.435Z,33.54
2022-07-25T12:24:38.022Z,33.62
2022-07-25T12:25:45.521Z,33.75
2022-07-25T12:26:47.194Z,33.71
2022-07-25T12:27:49.753Z,33.64
2022-07-25T12:28:51.410Z,33.67
2022-07-25T12:29:53.018Z,33.69
2022-07-25T12:30:56.891Z,33.78
2022-07-25T12:31:58.636Z,33.82
2022-07-25T12:33:01.432Z,33.85
2022-07-25T12:34:03.845Z,33.82
2022-07-25T12:35:08.247Z,33.77
2022-07-25T12:36:13.557Z,33.73
2022-07-25T12:37:15.389Z,33.79
2022-07-25T12:38:17.042Z,33.79
2022-07-25T12:39:18.629Z,33.84
2022-07-25T12:40:20.376Z,33.88
2022-07-25T12:41:23.600Z,33.90
2022-07-25T12:42:26.147Z,33.87
2022-07-25T12:43:27.795Z,33.85
2022-07-25T12:44:29.451Z,33.85
2022-07-25T12:45:31.111Z,33.86
2022-07-25T12:46:32.829Z,33.86
2022-07-25T12:47:35.365Z,33.83
2022-07-25T12:48:37.452Z,33.83
2022-07-25T12:49:39.406Z,33.76
2022-07-25T12:50:42.469Z,33.74
2022-07-25T12:51:44.235Z,33.63
2022-07-25T12:52:46.700Z,33.58
2022-07-25T12:53:48.393Z,33.54
2022-07-25T12:54:50.054Z,33.57
2022-07-25T12:55:51.796Z,33.59
2022-07-25T12:56:53.416Z,33.70
2022-07-25T12:57:55.040Z,33.73
2022-07-25T12:58:56.728Z,33.73
2022-07-25T12:59:58.319Z,33.79
2022-07-25T13:01:01.292Z,33.93
2022-07-25T13:02:05.887Z,33.98
2022-07-25T13:03:07.503Z,33.85
2022-07-25T13:04:09.327Z,33.86
2022-07-25T13:05:11.305Z,33.89
2022-07-25T13:06:13.121Z,33.93
2022-07-25T13:07:16.103Z,33.95
2022-07-25T13:08:18.419Z,33.96
2022-07-25T13:09:20.184Z,34.00
2022-07-25T13:10:21.971Z,34.04
2022-07-25T13:11:23.627Z,34.04
2022-07-25T13:12:25.322Z,34.02
2022-07-25T13:13:27.025Z,33.96
2022-07-25T13:14:28.618Z,33.98
2022-07-25T13:15:30.311Z,33.95
2022-07-25T13:16:32.297Z,34.00
2022-07-25T13:17:34.079Z,34.02
2022-07-25T13:18:35.821Z,34.01
2022-07-25T13:19:37.503Z,33.96
2022-07-25T13:20:39.245Z,33.93
2022-07-25T13:21:41.280Z,33.91
2022-07-25T13:22:42.958Z,33.91
2022-07-25T13:23:44.540Z,34.03
2022-07-25T13:24:46.170Z,34.10
2022-07-25T13:25:47.896Z,34.09
2022-07-25T13:26:49.715Z,34.10
2022-07-25T13:27:51.292Z,34.14
2022-07-25T13:28:56.579Z,34.17
2022-07-25T13:30:01.293Z,34.19
2022-07-25T13:31:05.808Z,34.17
2022-07-25T13:32:07.605Z,34.12
2022-07-25T13:33:10.654Z,34.08
2022-07-25T13:34:12.386Z,34.12
2022-07-25T13:35:19.122Z,34.16
2022-07-25T13:36:22.015Z,34.15
2022-07-25T13:37:23.744Z,34.06
2022-07-25T13:38:25.486Z,33.93